Flight Track Log - Related Links

Times and Time Zones

All times are in EDT time to prevent confusion due to time zone crossing. See the AAL963 flight status page for this flight to view local times or setup timezone preferences in your user account.

Time Position Orientation Groundspeed Altitude Reporting Facility
EDT Latitude Longitude Course Direction KTS MPH feet Rate Location/Type
Mon 09:25:34 PM 32.8690 -97.0520 184° South 196 226 1,500  Level FlightAware ADS-B
Mon 09:25:50 PM 32.8540 -97.0550 190° South 199 229 2,200 1,765 Climbing FlightAware ADS-B
Mon 09:26:08 PM 32.8370 -97.0590 191° South 220 253 2,500 750 Climbing FlightAware ADS-B
Mon 09:26:22 PM 32.8220 -97.0630 193° South 243 280 2,600 1,000 Climbing FlightAware ADS-B
Mon 09:26:44 PM 32.7970 -97.0690 191° South 263 303 3,100 1,579 Climbing FlightAware ADS-B
Mon 09:27:00 PM 32.7770 -97.0740 192° South 277 319 3,600 2,333 Climbing FlightAware ADS-B
Mon 09:27:20 PM 32.7510 -97.0800 191° South 280 322 4,500 2,500 Climbing FlightAware ADS-B
Mon 09:27:36 PM 32.7290 -97.0830 187° South 288 331 5,100 2,250 Climbing FlightAware ADS-B
Mon 09:28:00 PM 32.6980 -97.0780 172° South 290 334 6,000 2,341 Climbing FlightAware ADS-B
Mon 09:28:17 PM 32.6780 -97.0680 157° South 289 333 6,700 3,000 Climbing FlightAware ADS-B
Mon 09:28:28 PM 32.6640 -97.0580 149° Southeast 287 330 7,400 2,710 Climbing FlightAware ADS-B
Mon 09:28:48 PM 32.6420 -97.0420 149° Southeast 293 337 8,100 2,333 Climbing FlightAware ADS-B
Mon 09:29:04 PM 32.6220 -97.0290 151° Southeast 298 343 8,800 2,500 Climbing FlightAware ADS-B
Mon 09:29:24 PM 32.5980 -97.0130 151° Southeast 300 345 9,600 2,057 Climbing FlightAware ADS-B
Mon 09:29:39 PM 32.5810 -97.0020 151° Southeast 311 358 10,000 1,154 Climbing FlightAware ADS-B
Mon 09:30:16 PM 32.5290 -96.9700 153° Southeast 354 407 10,600 1,130 Climbing FlightAware ADS-B
Mon 09:30:48 PM 32.4800 -96.9390 152° Southeast 383 441 11,300 1,853 Climbing FlightAware ADS-B
Mon 09:31:24 PM 32.4210 -96.9020 152° Southeast 390 449 12,700 2,143 Climbing FlightAware ADS-B
Mon 09:31:58 PM 32.3680 -96.8680 152° Southeast 404 465 13,800 1,971 Climbing FlightAware ADS-B
Mon 09:32:34 PM 32.3060 -96.8290 152° Southeast 413 475 15,000 2,000 Climbing FlightAware ADS-B
Mon 09:33:10 PM 32.2430 -96.8000 159° South 421 484 16,200 2,083 Climbing FlightAware ADS-B
Mon 09:33:46 PM 32.1740 -96.7730 162° South 429 494 17,500 2,160 Climbing FlightAware ADS-B
Mon 09:34:00 PM 32.1474 -96.7629 162° South 430 495 18,000 1,733 Climbing FlightAware ADS-B
Mon 09:34:31 PM 32.0879 -96.7406 162° South 439 505 18,800 1,808 Climbing FlightAware ADS-B
Mon 09:35:13 PM 32.0043 -96.7089 162° South 445 512 20,200 1,890 Climbing FlightAware ADS-B
Mon 09:35:44 PM 31.9447 -96.6863 162° South 450 518 21,100 1,645 Climbing FlightAware ADS-B
Mon 09:36:15 PM 31.8829 -96.6628 162° South 455 524 21,900 1,742 Climbing FlightAware ADS-B
Mon 09:36:46 PM 31.8199 -96.6374 161° South 459 528 22,900 1,463 Climbing FlightAware ADS-B
Mon 09:38:18 PM 31.6295 -96.5589 161° South 482 555 24,900 1,344 Climbing FlightAware ADS-B
Mon 09:38:51 PM 31.5616 -96.5312 161° South 484 557 25,700 1,429 Climbing FlightAware ADS-B
Mon 09:39:21 PM 31.4975 -96.5053 161° South 488 562 26,400 1,279 Climbing FlightAware ADS-B
Mon 09:39:52 PM 31.4310 -96.4805 162° South 493 567 27,000 1,279 Climbing FlightAware ADS-B
Mon 09:40:22 PM 31.3634 -96.4558 163° South 497 572 27,700 1,475 Climbing FlightAware ADS-B
Mon 09:40:53 PM 31.2968 -96.4311 162° South 497 572 28,500 1,279 Climbing FlightAware ADS-B
Mon 09:41:23 PM 31.2298 -96.4062 162° South 504 580 29,000 1,000 Climbing FlightAware ADS-B
Mon 09:41:41 PM 31.1898 -96.3872 155° Southeast 509 586 29,300 1,029 Climbing FlightAware ADS-B
Mon 09:41:58 PM 31.1557 -96.3629 149° Southeast 509 586 29,600 1,333 Climbing FlightAware ADS-B
Mon 09:42:17 PM 31.1201 -96.3319 143° Southeast 508 585 30,100 792 Climbing FlightAware ADS-B
Mon 09:43:44 PM 30.9619 -96.1834 143° Southeast 506 582 31,000 458 Climbing FlightAware ADS-B
Mon 09:44:15 PM 30.9054 -96.1334 143° Southeast 505 581 31,000  Level FlightAware ADS-B
Mon 09:44:45 PM 30.8491 -96.0835 143° Southeast 505 581 31,000  Level FlightAware ADS-B
Mon 09:47:17 PM 30.5663 -95.8328 143° Southeast 501 577 31,000  Level FlightAware ADS-B
Mon 09:48:14 PM 30.4660 -95.7348 138° Southeast 502 578 31,000  Level FlightAware ADS-B
Mon 09:49:15 PM 30.3672 -95.6183 134° Southeast 501 577 31,000  Level FlightAware ADS-B
Mon 09:49:45 PM 30.3185 -95.5599 134° Southeast 499 574 31,000  Level FlightAware ADS-B
Mon 09:50:15 PM 30.2702 -95.5020 134° Southeast 498 573 31,000  Level FlightAware ADS-B
Mon 09:52:16 PM 30.0769 -95.2702 134° Southeast 498 573 31,000  Level FlightAware ADS-B
Mon 09:52:47 PM 30.0285 -95.2124 134° Southeast 497 572 31,000  Level FlightAware ADS-B
Mon 09:53:17 PM 29.9804 -95.1550 134° Southeast 499 574 31,000  Level FlightAware ADS-B
Mon 09:53:47 PM 29.9315 -95.0967 134° Southeast 499 574 31,000  Level FlightAware ADS-B
Mon 09:54:17 PM 29.8828 -95.0387 134° Southeast 500 575 31,000  Level FlightAware ADS-B
Mon 09:55:49 PM 29.7358 -94.8644 134° Southeast 497 572 31,000  Level FlightAware ADS-B
Mon 09:56:20 PM 29.6860 -94.8056 134° Southeast 498 573 31,000  Level FlightAware ADS-B
Mon 09:56:50 PM 29.6373 -94.7481 134° Southeast 499 574 31,000  Level FlightAware ADS-B
Mon 09:57:21 PM 29.5886 -94.6906 134° Southeast 499 574 31,000  Level FlightAware ADS-B
Mon 09:57:51 PM 29.5398 -94.6331 134° Southeast 500 575 31,000  Level FlightAware ADS-B
Mon 09:58:21 PM 29.4912 -94.5759 134° Southeast 500 575 31,000  Level FlightAware ADS-B
Mon 09:59:52 PM 29.3450 -94.4048 135° Southeast 496 571 31,000  Level FlightAware ADS-B
Mon 10:00:22 PM 29.2965 -94.3481 134° Southeast 497 572 31,000  Level FlightAware ADS-B
Mon 10:01:42 PM 29.1850 -94.2160 134° Southeast 497 572 31,000  Level FlightAware ADS-B
Mon 10:02:26 PM 29.1050 -94.1250 135° Southeast 495 570 31,000  Level FlightAware ADS-B
Mon 10:03:02 PM 29.0570 -94.0670 133° Southeast 495 570 31,000  Level FlightAware ADS-B
Mon 10:03:36 PM 29.0110 -94.0130 134° Southeast 495 570 31,000  Level FlightAware ADS-B
Mon 10:04:12 PM 28.9620 -93.9550 134° Southeast 495 570 31,000  Level FlightAware ADS-B
Mon 10:04:48 PM 28.9130 -93.8970 134° Southeast 495 570 31,000  Level FlightAware ADS-B
Mon 10:05:21 PM 28.8150 -93.7910 137° Southeast 494 568 31,000  Level FlightAware ADS-B
Mon 10:06:01 PM 28.7610 -93.7270 134° Southeast 494 568 31,000  Level FlightAware ADS-B
Mon 10:06:38 PM 28.7120 -93.6680 133° Southeast 494 568 31,000  Level FlightAware ADS-B
Mon 10:07:14 PM 28.6630 -93.6110 134° Southeast 494 568 31,000  Level FlightAware ADS-B
Mon 10:07:50 PM 28.6140 -93.5540 134° Southeast 494 568 31,000  Level FlightAware ADS-B
Mon 10:08:26 PM 28.5660 -93.4970 134° Southeast 494 568 31,000  Level FlightAware ADS-B
Mon 10:09:02 PM 28.5170 -93.4390 134° Southeast 494 568 31,000  Level FlightAware ADS-B
Mon 10:09:39 PM 28.4670 -93.3800 134° Southeast 494 568 31,000  Level FlightAware ADS-B
Mon 10:10:25 PM 28.4050 -93.3070 134° Southeast 494 568 31,000  Level FlightAware ADS-B
Mon 10:11:01 PM 28.3570 -93.2500 134° Southeast 494 568 31,000  Level FlightAware ADS-B
Mon 10:11:38 PM 28.3070 -93.1910 134° Southeast 494 568 31,000  Level FlightAware ADS-B
Mon 10:12:15 PM 28.2570 -93.1330 134° Southeast 494 568 31,000  Level FlightAware ADS-B
Mon 10:12:51 PM 28.2080 -93.0760 134° Southeast 494 568 31,000  Level FlightAware ADS-B
Mon 10:13:27 PM 28.1600 -93.0190 134° Southeast 494 568 31,000  Level FlightAware ADS-B
Mon 10:14:03 PM 28.1110 -92.9620 134° Southeast 494 568 31,000  Level FlightAware ADS-B
Mon 10:14:40 PM 28.0610 -92.9030 134° Southeast 494 568 31,000  Level FlightAware ADS-B
Mon 10:15:17 PM 28.0110 -92.8440 134° Southeast 494 568 31,000 -65 Level FlightAware ADS-B
Mon 10:16:12 PM 27.7928 -92.6328 134° Southeast 485 558 30,900  Descending Houston Center
Mon 10:18:00 PM 27.6335 -92.4279 137° Southeast  Level FlightAware Approximate
Mon 10:25:00 PM 26.9271 -91.7414 144° Southeast  Level FlightAware Approximate
Mon 10:26:00 PM 26.8182 -91.6546 145° Southeast  Level FlightAware Approximate
Mon 10:27:00 PM 26.7093 -91.5679 145° Southeast  Level FlightAware Approximate
Mon 10:28:00 PM 26.6003 -91.4814 145° Southeast  Level FlightAware Approximate
Mon 10:29:00 PM 26.4900 -91.3940 145° Southeast  Level FlightAware Approximate
Mon 10:30:00 PM 26.3797 -91.3067 145° Southeast  Level FlightAware Approximate
Mon 10:31:00 PM 26.2693 -91.2196 145° Southeast  Level FlightAware Approximate
Mon 10:32:00 PM 26.1589 -91.1327 145° Southeast  Level FlightAware Approximate
Mon 10:33:00 PM 26.0484 -91.0459 145° Southeast  Level FlightAware Approximate
Mon 10:34:00 PM 25.9379 -90.9592 145° Southeast  Level FlightAware Approximate
Mon 10:35:00 PM 25.8273 -90.8728 145° Southeast  Level FlightAware Approximate
Mon 10:36:00 PM 25.7167 -90.7865 145° Southeast  Level FlightAware Approximate
Mon 10:37:00 PM 25.6060 -90.7003 145° Southeast  Level FlightAware Approximate
Mon 10:38:00 PM 25.4953 -90.6143 145° Southeast  Level FlightAware Approximate
Mon 10:39:00 PM 25.3845 -90.5285 145° Southeast  Level FlightAware Approximate
Mon 10:40:00 PM 25.2737 -90.4428 145° Southeast  Level FlightAware Approximate
Mon 10:41:00 PM 25.1628 -90.3573 145° Southeast  Level FlightAware Approximate
Mon 10:42:00 PM 25.0519 -90.2719 145° Southeast  Level FlightAware Approximate
Mon 10:43:00 PM 24.9410 -90.1867 145° Southeast  Level FlightAware Approximate
Mon 10:44:00 PM 24.8299 -90.1017 145° Southeast  Level FlightAware Approximate
Mon 10:45:00 PM 24.7189 -90.0168 145° Southeast  Level FlightAware Approximate
Mon 10:46:00 PM 24.6077 -89.9320 145° Southeast  Level FlightAware Approximate
Mon 10:47:00 PM 24.4969 -89.8469 138° Southeast  Level FlightAware Approximate
Mon 10:48:00 PM 24.3861 -89.7621 146° Southeast  Level FlightAware Approximate
Mon 10:49:00 PM 24.2734 -89.6796 146° Southeast  Level FlightAware Approximate
Mon 10:50:00 PM 24.1607 -89.5973 146° Southeast  Level FlightAware Approximate
Mon 10:51:00 PM 24.0479 -89.5151 145° Southeast  Level FlightAware Approximate
Mon 10:52:00 PM 23.9367 -89.4305 145° Southeast  Level FlightAware Approximate
Mon 10:53:00 PM 23.8254 -89.3461 145° Southeast  Level FlightAware Approximate
Mon 10:54:00 PM 23.7141 -89.2618 145° Southeast  Level FlightAware Approximate
Mon 10:55:00 PM 23.6027 -89.1777 145° Southeast  Level FlightAware Approximate
Mon 10:56:00 PM 23.4912 -89.0937 145° Southeast  Level FlightAware Approximate
Mon 10:57:00 PM 23.3798 -89.0098 145° Southeast  Level FlightAware Approximate
Mon 10:58:00 PM 23.2683 -88.9261 145° Southeast  Level FlightAware Approximate
Mon 10:59:00 PM 23.1568 -88.8425 145° Southeast  Level FlightAware Approximate
Mon 11:00:00 PM 23.0458 -88.7580 145° Southeast  Level FlightAware Approximate
Mon 11:01:00 PM 22.9348 -88.6737 145° Southeast  Level FlightAware Approximate
Mon 11:02:00 PM 22.8237 -88.5895 145° Southeast  Level FlightAware Approximate
Mon 11:03:00 PM 22.7127 -88.5055 145° Southeast  Level FlightAware Approximate
Mon 11:03:02 PM 22.6960 -88.5020 145° Southeast 496 571 31,000  Level FlightAware ADS-B
Mon 11:03:39 PM 22.6200 -88.4450 145° Southeast 496 571 31,000  Level FlightAware ADS-B
Mon 11:04:15 PM 22.5520 -88.3820 139° Southeast 498 573 31,000  Level FlightAware ADS-B
Mon 11:04:56 PM 22.4880 -88.3180 137° Southeast 496 571 31,000  Level FlightAware ADS-B
Mon 11:05:26 PM 22.4350 -88.2640 137° Southeast 496 571 31,000  Level FlightAware ADS-B
Mon 11:05:59 PM 22.3780 -88.2060 137° Southeast 497 572 31,000  Level FlightAware ADS-B
Mon 11:06:36 PM 22.3160 -88.1430 137° Southeast 497 572 31,000  Level FlightAware ADS-B
Mon 11:07:17 PM 22.2590 -88.0860 137° Southeast 498 573 31,000  Level FlightAware ADS-B
Mon 11:07:54 PM 22.1850 -88.0100 136° Southeast 499 574 31,000  Level FlightAware ADS-B
Mon 11:08:33 PM 22.1190 -87.9440 137° Southeast 502 578 31,000  Level FlightAware ADS-B
Mon 11:09:12 PM 22.0530 -87.8780 137° Southeast 500 575 31,000  Level FlightAware ADS-B
Mon 11:09:42 PM 22.0050 -87.8290 137° Southeast 500 575 31,000  Level FlightAware ADS-B
Mon 11:10:23 PM 21.9310 -87.7540 137° Southeast 502 578 31,000  Level FlightAware ADS-B
Mon 11:10:56 PM 21.8790 -87.7030 138° Southeast 505 581 31,000  Level FlightAware ADS-B
Mon 11:11:41 PM 21.8070 -87.6310 137° Southeast 503 579 31,000  Level FlightAware ADS-B
Mon 11:12:10 PM 21.7590 -87.5830 137° Southeast 501 577 31,000  Level FlightAware ADS-B
Mon 11:12:49 PM 21.6810 -87.5050 137° Southeast 491 565 31,000  Level FlightAware ADS-B
Mon 11:13:23 PM 21.6280 -87.4530 138° Southeast 488 562 31,000  Level FlightAware ADS-B
Mon 11:14:00 PM 21.5670 -87.3920 137° Southeast 489 563 31,000  Level FlightAware ADS-B
Mon 11:14:32 PM 21.5070 -87.3330 138° Southeast 488 562 31,000 364 Level FlightAware ADS-B
Mon 11:15:06 PM 21.4500 -87.2770 138° Southeast 491 565 31,400 1,000 Climbing FlightAware ADS-B
Mon 11:15:44 PM 21.3870 -87.2150 137° Southeast 490 564 32,200 1,297 Climbing FlightAware ADS-B
Mon 11:16:20 PM 21.3260 -87.1550 137° Southeast 488 562 33,000 667 Climbing FlightAware ADS-B
Mon 11:16:56 PM 21.2680 -87.0970 137° Southeast 486 559 33,000  Level FlightAware ADS-B
Mon 11:17:30 PM 21.2120 -87.0420 138° Southeast 489 563 33,000  Level FlightAware ADS-B
Mon 11:18:04 PM 21.1530 -86.9840 137° Southeast 489 563 33,000  Level FlightAware ADS-B
Mon 11:18:38 PM 21.0970 -86.9300 138° Southeast 490 564 33,000  Level FlightAware ADS-B
Mon 11:19:14 PM 21.0360 -86.8700 137° Southeast 493 567 33,000  Level FlightAware ADS-B
Mon 11:19:50 PM 20.9760 -86.8110 137° Southeast 495 570 33,000  Level FlightAware ADS-B
Mon 11:20:26 PM 20.9140 -86.7510 138° Southeast 496 571 33,000  Level FlightAware ADS-B
Mon 11:20:58 PM 20.8590 -86.6970 137° Southeast 499 574 33,000  Level FlightAware ADS-B
Mon 11:21:32 PM 20.8030 -86.6440 138° Southeast 502 578 33,000  Level FlightAware ADS-B
Mon 11:22:08 PM 20.7400 -86.5820 137° Southeast 505 581 33,000  Level FlightAware ADS-B
Mon 11:22:44 PM 20.6760 -86.5210 138° Southeast 509 586 33,000  Level FlightAware ADS-B
Mon 11:23:20 PM 20.6150 -86.4610 137° Southeast 508 585 33,000  Level FlightAware ADS-B
Mon 11:23:56 PM 20.5510 -86.3990 138° Southeast 506 582 33,000  Level FlightAware ADS-B
Mon 11:24:24 PM 20.5040 -86.3520 137° Southeast 504 580 33,000  Level FlightAware ADS-B
Mon 11:25:19 PM 20.4270 -86.2570 131° Southeast 506 582 33,000  Level FlightAware ADS-B
Mon 11:25:48 PM 20.3820 -86.2000 130° Southeast 509 586 33,000  Level FlightAware ADS-B
Mon 11:26:29 PM 20.3240 -86.1270 130° Southeast 508 585 33,000  Level FlightAware ADS-B
Mon 11:26:58 PM 20.2730 -86.0640 131° Southeast 509 586 33,000  Level FlightAware ADS-B
Mon 11:27:40 PM 20.2150 -85.9950 132° Southeast 506 582 33,000  Level FlightAware ADS-B
Mon 11:28:14 PM 20.1720 -85.9430 131° Southeast 506 582 33,000  Level FlightAware ADS-B
Mon 11:28:48 PM 20.0970 -85.8530 132° Southeast 508 585 33,000  Level FlightAware ADS-B
Mon 11:29:42 PM 20.0210 -85.7600 131° Southeast 509 586 33,000  Level FlightAware ADS-B
Mon 11:30:30 PM 19.9510 -85.6680 129° Southeast 504 580 33,000  Level FlightAware ADS-B
Mon 11:31:03 PM 19.8970 -85.5950 128° Southeast 508 585 33,000  Level FlightAware ADS-B
Mon 11:31:55 PM 19.8350 -85.4940 123° Southeast 509 586 33,000  Level FlightAware ADS-B
Mon 11:32:14 PM 19.8000 -85.4520 132° Southeast 500 575 33,000  Level FlightAware ADS-B
Mon 11:32:46 PM 19.7510 -85.3940 132° Southeast 500 575 33,000  Level FlightAware ADS-B
Mon 11:33:22 PM 19.6920 -85.3270 133° Southeast 501 577 33,000  Level FlightAware ADS-B
Mon 11:33:54 PM 19.6430 -85.2730 134° Southeast 503 579 33,000  Level FlightAware ADS-B
Mon 11:34:33 PM 19.5800 -85.2000 132° Southeast 505 581 33,000  Level FlightAware ADS-B
Mon 11:35:10 PM 19.5290 -85.1380 131° Southeast 505 581 33,000  Level FlightAware ADS-B
Mon 11:35:46 PM 19.4820 -85.0810 131° Southeast 505 581 33,000  Level FlightAware ADS-B
Mon 11:36:22 PM 19.4350 -85.0240 131° Southeast 505 581 33,000  Level FlightAware ADS-B
Mon 11:36:58 PM 19.3880 -84.9670 131° Southeast 505 581 33,000  Level FlightAware ADS-B
Mon 11:37:34 PM 19.3420 -84.9100 131° Southeast 505 581 33,000  Level FlightAware ADS-B
Mon 11:38:10 PM 19.2950 -84.8520 131° Southeast 505 581 33,000  Level FlightAware ADS-B
Mon 11:38:47 PM 19.2460 -84.7940 132° Southeast 505 581 33,000  Level FlightAware ADS-B
Mon 11:39:23 PM 19.1990 -84.7360 131° Southeast 505 581 33,000  Level FlightAware ADS-B
Mon 11:39:59 PM 19.1530 -84.6790 131° Southeast 505 581 33,000  Level FlightAware ADS-B
Mon 11:40:35 PM 19.1060 -84.6220 131° Southeast 505 581 33,000  Level FlightAware ADS-B
Mon 11:41:11 PM 19.0590 -84.5650 131° Southeast 505 581 33,000  Level FlightAware ADS-B
Mon 11:41:49 PM 19.0090 -84.5050 131° Southeast 505 581 33,000  Level FlightAware ADS-B
Mon 11:42:23 PM 18.9650 -84.4510 131° Southeast 505 581 33,000  Level FlightAware ADS-B
Mon 11:43:00 PM 18.9170 -84.3920 131° Southeast 505 581 33,000  Level FlightAware ADS-B
Mon 11:43:36 PM 18.8700 -84.3350 131° Southeast 505 581 33,000  Level FlightAware ADS-B
Mon 11:44:12 PM 18.8230 -84.2780 131° Southeast 505 581 33,000  Level FlightAware ADS-B
Mon 11:46:00 PM 18.6437 -84.1036 137° Southeast  Level Estimated
Mon 11:47:00 PM 18.5439 -84.0069 137° Southeast  Level Estimated
Mon 11:48:00 PM 18.4442 -83.9103 137° Southeast  Level Estimated
Mon 11:49:00 PM 18.3444 -83.8138 137° Southeast  Level Estimated
Mon 11:50:00 PM 18.2445 -83.7174 137° Southeast  Level Estimated
Mon 11:51:00 PM 18.1446 -83.6212 138° Southeast  Level Estimated
Mon 11:52:00 PM 18.0446 -83.5250 138° Southeast  Level Estimated
Mon 11:53:00 PM 17.9447 -83.4289 138° Southeast  Level Estimated
Mon 11:54:00 PM 17.8446 -83.3330 138° Southeast  Level Estimated
Mon 11:55:00 PM 17.7445 -83.2372 138° Southeast  Level Estimated
Mon 11:56:00 PM 17.6444 -83.1414 138° Southeast  Level Estimated
Mon 11:57:00 PM 17.5442 -83.0458 138° Southeast  Level Estimated
Mon 11:58:00 PM 17.4440 -82.9503 138° Southeast  Level Estimated
Mon 11:59:00 PM 17.3437 -82.8549 138° Southeast  Level Estimated
Tue 12:00:00 AM 17.2433 -82.7596 138° Southeast  Level Estimated
Tue 12:01:00 AM 17.1430 -82.6644 138° Southeast  Level Estimated
Tue 12:02:00 AM 17.0426 -82.5693 138° Southeast  Level Estimated
Tue 12:03:00 AM 16.9421 -82.4743 138° Southeast  Level Estimated
Tue 12:04:00 AM 16.8416 -82.3794 138° Southeast  Level Estimated
Tue 12:05:00 AM 16.7411 -82.2846 138° Southeast  Level Estimated
Tue 12:06:00 AM 16.6405 -82.1899 138° Southeast  Level Estimated
Tue 12:07:00 AM 16.5399 -82.0953 138° Southeast  Level Estimated
Tue 12:08:00 AM 16.4392 -82.0008 138° Southeast  Level Estimated
Tue 12:09:00 AM 16.3385 -81.9064 138° Southeast  Level Estimated
Tue 12:10:00 AM 16.2377 -81.8121 138° Southeast  Level Estimated
Tue 12:11:00 AM 16.1369 -81.7179 138° Southeast  Level Estimated
Tue 12:12:00 AM 16.0361 -81.6238 138° Southeast  Level Estimated
Tue 12:13:00 AM 15.9352 -81.5298 138° Southeast  Level Estimated
Tue 12:14:00 AM 15.8343 -81.4358 138° Southeast  Level Estimated
Tue 12:15:00 AM 15.7333 -81.3420 138° Southeast  Level Estimated
Tue 12:16:00 AM 15.6323 -81.2483 138° Southeast  Level Estimated
Tue 12:17:00 AM 15.5313 -81.1546 138° Southeast  Level Estimated
Tue 12:18:00 AM 15.4302 -81.0611 138° Southeast  Level Estimated
Tue 12:19:00 AM 15.3291 -80.9676 138° Southeast  Level Estimated
Tue 12:20:00 AM 15.2279 -80.8743 138° Southeast  Level Estimated
Tue 12:21:00 AM 15.1267 -80.7810 138° Southeast  Level Estimated
Tue 12:22:00 AM 15.0253 -80.6876 138° Southeast  Level Estimated
Tue 12:23:00 AM 14.9238 -80.5944 138° Southeast  Level Estimated
Tue 12:24:00 AM 14.8223 -80.5012 138° Southeast  Level Estimated
Tue 12:25:00 AM 14.7208 -80.4081 138° Southeast  Level Estimated
Tue 12:26:00 AM 14.6192 -80.3151 138° Southeast  Level Estimated
Tue 12:27:00 AM 14.5176 -80.2222 138° Southeast  Level Estimated
Tue 12:28:00 AM 14.4160 -80.1293 138° Southeast  Level Estimated
Tue 12:29:00 AM 14.3143 -80.0366 139° Southeast  Level Estimated
Tue 12:30:00 AM 14.2126 -79.9439 139° Southeast  Level Estimated
Tue 12:31:00 AM 14.1108 -79.8513 139° Southeast  Level Estimated
Tue 12:32:00 AM 14.0090 -79.7588 139° Southeast  Level Estimated
Tue 12:33:00 AM 13.9072 -79.6664 139° Southeast  Level Estimated
Tue 12:34:00 AM 13.8054 -79.5741 139° Southeast  Level Estimated
Tue 12:35:00 AM 13.7035 -79.4818 139° Southeast  Level Estimated
Tue 12:36:00 AM 13.6015 -79.3896 139° Southeast  Level Estimated
Tue 12:37:00 AM 13.4996 -79.2975 139° Southeast  Level Estimated
Tue 12:38:00 AM 13.3976 -79.2055 139° Southeast  Level Estimated
Tue 12:39:00 AM 13.2956 -79.1135 139° Southeast  Level Estimated
Tue 12:40:00 AM 13.1935 -79.0217 139° Southeast  Level Estimated
Tue 12:41:00 AM 13.0914 -78.9299 139° Southeast  Level Estimated
Tue 12:42:00 AM 12.9893 -78.8382 139° Southeast  Level Estimated
Tue 12:43:00 AM 12.8871 -78.7466 139° Southeast  Level Estimated
Tue 12:44:00 AM 12.7849 -78.6550 139° Southeast  Level Estimated
Tue 12:45:00 AM 12.6827 -78.5635 139° Southeast  Level Estimated
Tue 12:46:00 AM 12.5805 -78.4721 139° Southeast  Level Estimated
Tue 12:47:00 AM 12.4782 -78.3808 139° Southeast  Level Estimated
Tue 12:48:00 AM 12.3759 -78.2895 139° Southeast  Level Estimated
Tue 12:49:00 AM 12.2735 -78.1983 139° Southeast  Level Estimated
Tue 12:50:00 AM 12.1712 -78.1071 139° Southeast  Level Estimated
Tue 12:51:00 AM 12.0688 -78.0161 139° Southeast  Level Estimated
Tue 12:52:00 AM 11.9663 -77.9251 139° Southeast  Level Estimated
Tue 12:53:00 AM 11.8639 -77.8342 139° Southeast  Level Estimated
Tue 12:54:00 AM 11.7614 -77.7433 139° Southeast  Level Estimated
Tue 12:55:00 AM 11.6588 -77.6525 139° Southeast  Level Estimated
Tue 12:56:00 AM 11.5563 -77.5618 139° Southeast  Level Estimated
Tue 12:57:00 AM 11.4537 -77.4712 139° Southeast  Level Estimated
Tue 12:57:22 AM 10.9690 -77.4240 139° Southeast 33,000  Level FlightAware ADS-B
Tue 12:57:26 AM 10.9600 -77.4160 139° Southeast 484 557 33,000  Level FlightAware ADS-B
Tue 12:58:01 AM 10.9010 -77.3630 139° Southeast 483 556 33,000  Level FlightAware ADS-B
Tue 12:58:41 AM 10.8330 -77.2990 137° Southeast 484 557 33,000  Level FlightAware ADS-B
Tue 12:59:16 AM 10.7750 -77.2450 138° Southeast 486 559 33,000  Level FlightAware ADS-B
Tue 12:59:59 AM 10.7140 -77.1860 136° Southeast 486 559 33,000  Level FlightAware ADS-B
Tue 01:00:36 AM 10.6630 -77.1360 136° Southeast 486 559 33,000  Level FlightAware ADS-B
Tue 01:01:16 AM 10.5770 -77.0610 139° Southeast 484 557 33,000  Level FlightAware ADS-B
Tue 01:01:46 AM 10.5270 -77.0140 137° Southeast 484 557 33,000  Level FlightAware ADS-B
Tue 01:02:26 AM 10.4570 -76.9490 138° Southeast 481 554 33,000  Level FlightAware ADS-B
Tue 01:02:56 AM 10.4060 -76.9020 138° Southeast 481 554 33,000  Level FlightAware ADS-B
Tue 01:03:31 AM 10.3470 -76.8470 137° Southeast 486 559 33,000  Level FlightAware ADS-B
Tue 01:04:08 AM 10.2910 -76.7950 138° Southeast 486 559 33,000  Level FlightAware ADS-B
Tue 01:04:42 AM 10.2300 -76.7380 137° Southeast 486 559 33,000  Level FlightAware ADS-B
Tue 01:05:17 AM 10.1730 -76.6850 138° Southeast 486 559 33,000  Level FlightAware ADS-B
Tue 01:05:58 AM 10.1050 -76.6220 138° Southeast 487 560 33,000  Level FlightAware ADS-B
Tue 01:06:32 AM 10.0500 -76.5710 138° Southeast 486 559 33,000  Level FlightAware ADS-B
Tue 01:07:08 AM 9.9930 -76.5180 138° Southeast 487 560 33,000  Level FlightAware ADS-B
Tue 01:07:43 AM 9.9320 -76.4620 138° Southeast 486 559 33,000  Level FlightAware ADS-B
Tue 01:08:20 AM 9.8800 -76.4140 138° Southeast 486 559 33,000  Level FlightAware ADS-B
Tue 01:09:09 AM 9.7940 -76.3320 137° Southeast 483 556 33,000  Level FlightAware ADS-B
Tue 01:09:43 AM 9.7280 -76.2730 139° Southeast 488 562 33,000  Level FlightAware ADS-B
Tue 01:10:13 AM 9.6790 -76.2290 138° Southeast 489 563 33,000  Level FlightAware ADS-B
Tue 01:10:53 AM 9.6130 -76.1670 137° Southeast 490 564 33,000  Level FlightAware ADS-B
Tue 01:11:28 AM 9.5590 -76.1170 138° Southeast 490 564 33,000  Level FlightAware ADS-B
Tue 01:12:18 AM 9.4730 -76.0380 138° Southeast 488 562 33,000  Level FlightAware ADS-B
Tue 01:12:53 AM 9.4100 -75.9800 138° Southeast 489 563 33,000  Level FlightAware ADS-B
Tue 01:13:28 AM 9.3530 -75.9280 138° Southeast 490 564 33,000  Level FlightAware ADS-B
Tue 01:14:03 AM 9.2930 -75.8730 138° Southeast 491 565 33,000  Level FlightAware ADS-B
Tue 01:14:43 AM 9.2320 -75.8160 137° Southeast 489 563 33,000  Level FlightAware ADS-B
Tue 01:15:18 AM 9.1710 -75.7610 138° Southeast 487 560 33,000  Level FlightAware ADS-B
Tue 01:16:09 AM 9.0960 -75.6730 131° Southeast 485 558 33,000  Level FlightAware ADS-B
Tue 01:16:58 AM 9.0350 -75.5820 124° Southeast 486 559 33,000  Level FlightAware ADS-B
Tue 01:17:46 AM 8.9780 -75.4970 124° Southeast 487 560 33,000  Level FlightAware ADS-B
Tue 01:18:33 AM 8.9130 -75.4000 124° Southeast 486 559 33,000  Level FlightAware ADS-B
Tue 01:19:14 AM 8.8670 -75.3310 124° Southeast 485 558 33,000  Level FlightAware ADS-B
Tue 01:19:50 AM 8.8250 -75.2690 124° Southeast 480 552 33,000  Level FlightAware ADS-B
Tue 01:20:23 AM 8.7750 -75.1960 125° Southeast 475 547 33,000  Level FlightAware ADS-B
Tue 01:20:58 AM 8.7310 -75.1320 125° Southeast 476 548 33,000  Level FlightAware ADS-B
Tue 01:21:33 AM 8.6860 -75.0670 125° Southeast 474 545 33,000  Level FlightAware ADS-B
Tue 01:22:08 AM 8.6450 -75.0070 125° Southeast 475 547 33,000  Level FlightAware ADS-B
Tue 01:22:49 AM 8.5940 -74.9320 125° Southeast 475 547 33,000  Level FlightAware ADS-B
Tue 01:23:23 AM 8.5500 -74.8670 124° Southeast 476 548 33,000  Level FlightAware ADS-B
Tue 01:24:08 AM 8.4970 -74.7870 124° Southeast 477 549 33,000  Level FlightAware ADS-B
Tue 01:25:00 AM 8.4400 -74.7020 124° Southeast 477 549 33,000  Level FlightAware ADS-B
Tue 01:25:43 AM 8.3800 -74.6120 124° Southeast 478 550 33,000  Level FlightAware ADS-B
Tue 01:26:13 AM 8.3310 -74.5620 135° Southeast 483 556 33,000  Level FlightAware ADS-B
Tue 01:26:49 AM 8.2630 -74.5190 148° Southeast 484 557 33,000  Level FlightAware ADS-B
Tue 01:27:23 AM 8.1940 -74.4790 150° Southeast 485 558 33,000  Level FlightAware ADS-B
Tue 01:27:58 AM 8.1250 -74.4410 151° Southeast 488 562 33,000  Level FlightAware ADS-B
Tue 01:28:43 AM 8.0390 -74.3920 151° Southeast 492 566 33,000  Level FlightAware ADS-B
Tue 01:29:13 AM 7.9760 -74.3560 150° Southeast 491 565 33,000  Level FlightAware ADS-B
Tue 01:30:06 AM 7.8810 -74.3010 150° Southeast 491 565 33,000  Level FlightAware ADS-B
Tue 01:30:38 AM 7.8100 -74.2600 150° Southeast 491 565 33,000  Level FlightAware ADS-B
Tue 01:31:13 AM 7.7410 -74.2200 150° Southeast 490 564 33,000  Level FlightAware ADS-B
Tue 01:31:48 AM 7.6730 -74.1800 150° Southeast 491 565 33,000  Level FlightAware ADS-B
Tue 01:32:23 AM 7.6080 -74.1420 150° Southeast 491 565 33,000  Level FlightAware ADS-B
Tue 01:33:03 AM 7.5230 -74.0930 150° Southeast 489 563 33,000  Level FlightAware ADS-B
Tue 01:33:33 AM 7.4650 -74.0590 150° Southeast 488 562 33,000  Level FlightAware ADS-B
Tue 01:34:08 AM 7.3960 -74.0190 150° Southeast 487 560 33,000  Level FlightAware ADS-B
Tue 01:34:43 AM 7.3290 -73.9800 150° Southeast 489 563 33,000  Level FlightAware ADS-B
Tue 01:35:27 AM 7.2560 -73.9380 150° Southeast 489 563 33,000  Level FlightAware ADS-B
Tue 01:36:23 AM 7.1300 -73.8650 150° Southeast 496 571 33,000  Level FlightAware ADS-B
Tue 01:37:08 AM 7.0500 -73.8180 150° Southeast 495 570 33,000  Level FlightAware ADS-B
Tue 01:37:43 AM 6.9690 -73.7730 151° Southeast 494 568 33,000  Level FlightAware ADS-B
Tue 01:38:23 AM 6.8910 -73.7310 152° Southeast 493 567 33,000  Level FlightAware ADS-B
Tue 01:38:58 AM 6.8170 -73.6910 152° Southeast 493 567 33,000  Level FlightAware ADS-B
Tue 01:39:29 AM 6.7590 -73.6600 152° Southeast 494 568 33,000  Level FlightAware ADS-B
Tue 01:40:07 AM 6.6770 -73.6160 152° Southeast 496 571 33,000  Level FlightAware ADS-B
Tue 01:40:43 AM 6.6060 -73.5770 151° Southeast 496 571 33,000  Level FlightAware ADS-B
Tue 01:41:19 AM 6.5320 -73.5370 152° Southeast 494 568 33,000  Level FlightAware ADS-B
Tue 01:41:56 AM 6.4590 -73.4970 151° Southeast 493 567 33,000  Level FlightAware ADS-B
Tue 01:42:27 AM 6.3940 -73.4620 152° Southeast 493 567 33,000  Level FlightAware ADS-B
Tue 01:43:05 AM 6.3180 -73.4210 152° Southeast 493 567 33,000  Level FlightAware ADS-B
Tue 01:43:41 AM 6.2450 -73.3820 152° Southeast 493 567 33,000  Level FlightAware ADS-B
Tue 01:44:13 AM 6.1810 -73.3470 151° Southeast 493 567 33,000  Level FlightAware ADS-B
Tue 01:44:58 AM 6.1010 -73.3030 151° Southeast 493 567 33,000  Level FlightAware ADS-B
Tue 01:45:34 AM 6.0400 -73.2690 151° Southeast 493 567 33,000  Level FlightAware ADS-B
Tue 01:46:10 AM 5.9790 -73.2350 151° Southeast 493 567 33,000  Level FlightAware ADS-B
Tue 01:46:46 AM 5.9180 -73.2010 151° Southeast 493 567 33,000  Level FlightAware ADS-B
Tue 01:47:23 AM 5.8550 -73.1660 151° Southeast 493 567 33,000  Level FlightAware ADS-B
Tue 01:47:59 AM 5.7940 -73.1320 151° Southeast 493 567 33,000  Level FlightAware ADS-B
Tue 01:48:35 AM 5.7330 -73.0980 151° Southeast 493 567 33,000  Level FlightAware ADS-B
Tue 01:49:12 AM 5.6700 -73.0630 151° Southeast 493 567 33,000  Level FlightAware ADS-B
Tue 01:50:10 AM 5.4600 -72.9590 154° Southeast 496 571 33,000  Level FlightAware ADS-B
Tue 01:50:46 AM 5.3880 -72.9200 152° Southeast 495 570 33,000  Level FlightAware ADS-B
Tue 01:51:20 AM 5.3190 -72.8830 152° Southeast 495 570 33,000  Level FlightAware ADS-B
Tue 01:51:56 AM 5.2460 -72.8430 151° Southeast 496 571 33,000  Level FlightAware ADS-B
Tue 01:52:30 AM 5.1780 -72.8070 152° Southeast 497 572 33,000  Level FlightAware ADS-B
Tue 01:53:17 AM 5.0920 -72.7600 151° Southeast 497 572 33,000  Level FlightAware ADS-B
Tue 01:53:53 AM 5.0310 -72.7260 151° Southeast 497 572 33,000  Level FlightAware ADS-B
Tue 01:54:30 AM 4.9680 -72.6910 151° Southeast 497 572 33,000  Level FlightAware ADS-B
Tue 01:55:06 AM 4.9060 -72.6570 151° Southeast 497 572 33,000  Level FlightAware ADS-B
Tue 01:55:42 AM 4.8450 -72.6220 150° Southeast 497 572 33,000  Level FlightAware ADS-B
Tue 01:56:19 AM 4.7810 -72.5870 151° Southeast 497 572 33,000  Level FlightAware ADS-B
Tue 01:56:55 AM 4.7200 -72.5530 151° Southeast 497 572 33,000  Level FlightAware ADS-B
Tue 01:57:31 AM 4.6580 -72.5190 151° Southeast 497 572 33,000  Level FlightAware ADS-B
Tue 01:58:07 AM 4.5970 -72.4850 151° Southeast 497 572 33,000  Level FlightAware ADS-B
Tue 01:58:43 AM 4.5350 -72.4500 151° Southeast 497 572 33,000  Level FlightAware ADS-B
Tue 01:59:19 AM 4.4740 -72.4160 151° Southeast 497 572 33,000  Level FlightAware ADS-B
Tue 01:59:55 AM 4.4120 -72.3820 151° Southeast 497 572 33,000  Level FlightAware ADS-B
Tue 02:00:31 AM 4.3510 -72.3480 151° Southeast 497 572 33,000  Level FlightAware ADS-B
Tue 02:01:07 AM 4.2890 -72.3140 151° Southeast 497 572 33,000  Level FlightAware ADS-B
Tue 02:01:43 AM 4.2270 -72.2790 151° Southeast 497 572 33,000  Level FlightAware ADS-B
Tue 02:02:19 AM 4.1660 -72.2450 151° Southeast 497 572 33,000 18 Level FlightAware ADS-B
Tue 02:04:00 AM 3.9600 -72.1461 154° Southeast  Level FlightAware Approximate
Tue 02:05:00 AM 3.8467 -72.0722 145° Southeast  Level FlightAware Approximate
Tue 02:06:00 AM 3.7358 -71.9939 145° Southeast  Level FlightAware Approximate
Tue 02:07:00 AM 3.6248 -71.9156 145° Southeast  Level FlightAware Approximate
Tue 02:08:00 AM 3.5138 -71.8374 145° Southeast  Level FlightAware Approximate
Tue 02:09:00 AM 3.4029 -71.7591 145° Southeast  Level FlightAware Approximate
Tue 02:10:00 AM 3.2919 -71.6809 145° Southeast  Level FlightAware Approximate
Tue 02:11:00 AM 3.1809 -71.6028 145° Southeast  Level FlightAware Approximate
Tue 02:12:00 AM 3.0699 -71.5246 145° Southeast  Level FlightAware Approximate
Tue 02:13:00 AM 2.9589 -71.4464 145° Southeast  Level FlightAware Approximate
Tue 02:14:00 AM 2.8479 -71.3683 145° Southeast  Level FlightAware Approximate
Tue 02:15:00 AM 2.7369 -71.2901 145° Southeast  Level FlightAware Approximate
Tue 02:16:00 AM 2.6259 -71.2120 145° Southeast  Level FlightAware Approximate
Tue 02:17:00 AM 2.5149 -71.1339 145° Southeast  Level FlightAware Approximate
Tue 02:18:00 AM 2.4039 -71.0558 145° Southeast  Level FlightAware Approximate
Tue 02:19:00 AM 2.2928 -70.9777 145° Southeast  Level FlightAware Approximate
Tue 02:20:00 AM 2.1818 -70.8997 145° Southeast  Level FlightAware Approximate
Tue 02:21:00 AM 2.0708 -70.8216 145° Southeast  Level FlightAware Approximate
Tue 02:22:00 AM 1.9597 -70.7436 145° Southeast  Level FlightAware Approximate
Tue 02:23:00 AM 1.8487 -70.6656 145° Southeast  Level FlightAware Approximate
Tue 02:24:00 AM 1.7377 -70.5875 145° Southeast  Level FlightAware Approximate
Tue 02:25:00 AM 1.6266 -70.5095 145° Southeast  Level FlightAware Approximate
Tue 02:26:00 AM 1.5156 -70.4315 145° Southeast  Level FlightAware Approximate
Tue 02:27:00 AM 1.4045 -70.3535 145° Southeast  Level FlightAware Approximate
Tue 02:28:00 AM 1.2934 -70.2755 145° Southeast  Level FlightAware Approximate
Tue 02:29:00 AM 1.1868 -70.1919 138° Southeast  Level FlightAware Approximate
Tue 02:30:00 AM 1.0855 -70.1017 138° Southeast  Level FlightAware Approximate
Tue 02:31:00 AM 0.9841 -70.0115 138° Southeast  Level FlightAware Approximate
Tue 02:32:00 AM 0.8827 -69.9213 138° Southeast  Level FlightAware Approximate
Tue 02:33:00 AM 0.7814 -69.8311 138° Southeast  Level FlightAware Approximate
Tue 02:34:00 AM 0.6800 -69.7409 138° Southeast  Level FlightAware Approximate
Tue 02:35:00 AM 0.5786 -69.6507 138° Southeast  Level FlightAware Approximate
Tue 02:36:00 AM 0.4772 -69.5604 138° Southeast  Level FlightAware Approximate
Tue 02:37:00 AM 0.3759 -69.4703 138° Southeast  Level FlightAware Approximate
Tue 02:38:00 AM 0.2745 -69.3801 138° Southeast  Level FlightAware Approximate
Tue 02:39:00 AM 0.1731 -69.2899 138° Southeast  Level FlightAware Approximate
Tue 02:40:00 AM 0.0717 -69.1997 138° Southeast  Level FlightAware Approximate
Tue 02:41:00 AM -0.0297 -69.1095 138° Southeast  Level FlightAware Approximate
Tue 02:42:00 AM -0.1310 -69.0193 138° Southeast  Level FlightAware Approximate
Tue 02:43:00 AM -0.2324 -68.9291 138° Southeast  Level FlightAware Approximate
Tue 02:44:00 AM -0.3338 -68.8389 138° Southeast  Level FlightAware Approximate
Tue 02:45:00 AM -0.4352 -68.7487 138° Southeast  Level FlightAware Approximate
Tue 02:46:00 AM -0.5366 -68.6585 138° Southeast  Level FlightAware Approximate
Tue 02:47:00 AM -0.6379 -68.5683 138° Southeast  Level FlightAware Approximate
Tue 02:48:00 AM -0.7393 -68.4781 138° Southeast  Level FlightAware Approximate
Tue 02:49:00 AM -0.8407 -68.3879 138° Southeast  Level FlightAware Approximate
Tue 02:50:00 AM -0.9420 -68.2977 138° Southeast  Level FlightAware Approximate
Tue 02:51:00 AM -1.0434 -68.2075 138° Southeast  Level FlightAware Approximate
Tue 02:52:00 AM -1.1448 -68.1173 138° Southeast  Level FlightAware Approximate
Tue 02:53:00 AM -1.2462 -68.0270 138° Southeast  Level FlightAware Approximate
Tue 02:54:00 AM -1.3475 -67.9368 138° Southeast  Level FlightAware Approximate
Tue 02:55:00 AM -1.4489 -67.8465 138° Southeast  Level FlightAware Approximate
Tue 02:56:00 AM -1.5502 -67.7563 138° Southeast  Level FlightAware Approximate
Tue 02:57:00 AM -1.6516 -67.6660 138° Southeast  Level FlightAware Approximate
Tue 02:58:00 AM -1.7529 -67.5758 138° Southeast  Level FlightAware Approximate
Tue 02:59:00 AM -1.8542 -67.4855 138° Southeast  Level FlightAware Approximate
Tue 03:00:00 AM -1.9556 -67.3952 138° Southeast  Level FlightAware Approximate
Tue 03:01:00 AM -2.0569 -67.3049 138° Southeast  Level FlightAware Approximate
Tue 03:02:00 AM -2.1583 -67.2146 138° Southeast  Level FlightAware Approximate
Tue 03:03:00 AM -2.2594 -67.1244 138° Southeast  Level FlightAware Approximate
Tue 03:04:00 AM -2.3605 -67.0343 138° Southeast  Level FlightAware Approximate
Tue 03:05:00 AM -2.4616 -66.9441 138° Southeast  Level FlightAware Approximate
Tue 03:06:00 AM -2.5628 -66.8539 138° Southeast  Level FlightAware Approximate
Tue 03:07:00 AM -2.6639 -66.7636 138° Southeast  Level FlightAware Approximate
Tue 03:08:00 AM -2.7650 -66.6734 138° Southeast  Level FlightAware Approximate
Tue 03:09:00 AM -2.8661 -66.5832 138° Southeast  Level FlightAware Approximate
Tue 03:10:00 AM -2.9672 -66.4929 138° Southeast  Level FlightAware Approximate
Tue 03:11:00 AM -3.0682 -66.4026 138° Southeast  Level FlightAware Approximate
Tue 03:12:00 AM -3.1693 -66.3123 138° Southeast  Level FlightAware Approximate
Tue 03:13:00 AM -3.2704 -66.2220 138° Southeast  Level FlightAware Approximate
Tue 03:14:00 AM -3.3715 -66.1317 138° Southeast  Level FlightAware Approximate
Tue 03:15:00 AM -3.4725 -66.0414 138° Southeast  Level FlightAware Approximate
Tue 03:16:00 AM -3.5735 -65.9510 138° Southeast  Level FlightAware Approximate
Tue 03:17:00 AM -3.6746 -65.8606 138° Southeast  Level FlightAware Approximate
Tue 03:18:00 AM -3.7756 -65.7702 138° Southeast  Level FlightAware Approximate
Tue 03:19:00 AM -3.8766 -65.6797 138° Southeast  Level FlightAware Approximate
Tue 03:20:00 AM -3.9776 -65.5893 138° Southeast  Level FlightAware Approximate
Tue 03:21:00 AM -4.0786 -65.4988 138° Southeast  Level FlightAware Approximate
Tue 03:22:00 AM -4.1796 -65.4083 138° Southeast  Level FlightAware Approximate
Tue 03:23:00 AM -4.2806 -65.3178 138° Southeast  Level FlightAware Approximate
Tue 03:24:00 AM -4.3816 -65.2273 138° Southeast  Level FlightAware Approximate
Tue 03:25:00 AM -4.4825 -65.1367 138° Southeast  Level FlightAware Approximate
Tue 03:26:00 AM -4.5835 -65.0461 138° Southeast  Level FlightAware Approximate
Tue 03:27:00 AM -4.6844 -64.9555 138° Southeast  Level FlightAware Approximate
Tue 03:28:00 AM -4.7853 -64.8648 138° Southeast  Level FlightAware Approximate
Tue 03:29:00 AM -4.8862 -64.7742 138° Southeast  Level FlightAware Approximate
Tue 03:30:00 AM -4.9871 -64.6835 138° Southeast  Level FlightAware Approximate
Tue 03:31:00 AM -5.0880 -64.5927 138° Southeast  Level FlightAware Approximate
Tue 03:32:00 AM -5.1889 -64.5020 138° Southeast  Level FlightAware Approximate
Tue 03:33:00 AM -5.2897 -64.4112 138° Southeast  Level FlightAware Approximate
Tue 03:34:00 AM -5.3906 -64.3204 138° Southeast  Level FlightAware Approximate
Tue 03:35:00 AM -5.4914 -64.2296 138° Southeast  Level FlightAware Approximate
Tue 03:36:00 AM -5.5922 -64.1387 138° Southeast  Level FlightAware Approximate
Tue 03:37:00 AM -5.6930 -64.0478 138° Southeast  Level FlightAware Approximate
Tue 03:38:00 AM -5.7938 -63.9568 138° Southeast  Level FlightAware Approximate
Tue 03:39:00 AM -5.8946 -63.8658 138° Southeast  Level FlightAware Approximate
Tue 03:40:00 AM -5.9954 -63.7748 138° Southeast  Level FlightAware Approximate
Tue 03:41:00 AM -6.0961 -63.6838 138° Southeast  Level FlightAware Approximate
Tue 03:42:00 AM -6.1970 -63.5926 138° Southeast  Level FlightAware Approximate
Tue 03:43:00 AM -6.2979 -63.5013 138° Southeast  Level FlightAware Approximate
Tue 03:44:00 AM -6.3988 -63.4100 138° Southeast  Level FlightAware Approximate
Tue 03:45:00 AM -6.4997 -63.3186 138° Southeast  Level FlightAware Approximate
Tue 03:46:00 AM -6.6005 -63.2273 138° Southeast  Level FlightAware Approximate
Tue 03:47:00 AM -6.7014 -63.1358 138° Southeast  Level FlightAware Approximate
Tue 03:48:00 AM -6.8022 -63.0444 138° Southeast  Level FlightAware Approximate
Tue 03:49:00 AM -6.9030 -62.9529 138° Southeast  Level FlightAware Approximate
Tue 03:50:00 AM -7.0038 -62.8614 138° Southeast  Level FlightAware Approximate
Tue 03:51:00 AM -7.1045 -62.7698 138° Southeast  Level FlightAware Approximate
Tue 03:52:00 AM -7.2053 -62.6782 138° Southeast  Level FlightAware Approximate
Tue 03:53:00 AM -7.3060 -62.5865 138° Southeast  Level FlightAware Approximate
Tue 03:54:00 AM -7.4067 -62.4949 138° Southeast  Level FlightAware Approximate
Tue 03:55:00 AM -7.5074 -62.4031 138° Southeast  Level FlightAware Approximate
Tue 03:56:00 AM -7.6081 -62.3113 138° Southeast  Level FlightAware Approximate
Tue 03:57:00 AM -7.7087 -62.2195 138° Southeast  Level FlightAware Approximate
Tue 03:58:00 AM -7.8094 -62.1276 138° Southeast  Level FlightAware Approximate
Tue 03:59:00 AM -7.9100 -62.0357 138° Southeast  Level FlightAware Approximate
Tue 04:00:00 AM -8.0105 -61.9438 138° Southeast  Level FlightAware Approximate
Tue 04:01:00 AM -8.1111 -61.8518 138° Southeast  Level FlightAware Approximate
Tue 04:02:00 AM -8.2117 -61.7597 138° Southeast  Level FlightAware Approximate
Tue 04:03:00 AM -8.3122 -61.6676 138° Southeast  Level FlightAware Approximate
Tue 04:04:00 AM -8.4127 -61.5755 138° Southeast  Level FlightAware Approximate
Tue 04:05:00 AM -8.5132 -61.4833 138° Southeast  Level FlightAware Approximate
Tue 04:06:00 AM -8.6137 -61.3911 138° Southeast  Level FlightAware Approximate
Tue 04:07:00 AM -8.7141 -61.2988 138° Southeast  Level FlightAware Approximate
Tue 04:08:00 AM -8.8145 -61.2065 138° Southeast  Level FlightAware Approximate
Tue 04:09:00 AM -8.9149 -61.1141 138° Southeast  Level FlightAware Approximate
Tue 04:10:00 AM -9.0153 -61.0216 138° Southeast  Level FlightAware Approximate
Tue 04:11:00 AM -9.1157 -60.9291 138° Southeast  Level FlightAware Approximate
Tue 04:12:00 AM -9.2160 -60.8366 138° Southeast  Level FlightAware Approximate
Tue 04:13:00 AM -9.3163 -60.7440 138° Southeast  Level FlightAware Approximate
Tue 04:14:00 AM -9.4166 -60.6513 138° Southeast  Level FlightAware Approximate
Tue 04:15:00 AM -9.5168 -60.5587 138° Southeast  Level FlightAware Approximate
Tue 04:16:00 AM -9.6171 -60.4659 138° Southeast  Level FlightAware Approximate
Tue 04:17:00 AM -9.7173 -60.3731 138° Southeast  Level FlightAware Approximate
Tue 04:18:00 AM -9.8175 -60.2802 138° Southeast  Level FlightAware Approximate
Tue 04:19:00 AM -9.9176 -60.1873 138° Southeast  Level FlightAware Approximate
Tue 04:20:00 AM -10.0177 -60.0943 138° Southeast  Level FlightAware Approximate
Tue 04:21:00 AM -10.1179 -60.0013 138° Southeast  Level FlightAware Approximate
Tue 04:22:00 AM -10.2179 -59.9082 138° Southeast  Level FlightAware Approximate
Tue 04:23:00 AM -10.3180 -59.8151 138° Southeast  Level FlightAware Approximate
Tue 04:24:00 AM -10.4178 -59.7220 137° Southeast  Level FlightAware Approximate
Tue 04:25:00 AM -10.5177 -59.6289 137° Southeast  Level FlightAware Approximate
Tue 04:26:00 AM -10.6174 -59.5358 137° Southeast  Level FlightAware Approximate
Tue 04:27:00 AM -10.7172 -59.4425 137° Southeast  Level FlightAware Approximate
Tue 04:28:00 AM -10.8169 -59.3493 137° Southeast  Level FlightAware Approximate
Tue 04:29:00 AM -10.9167 -59.2559 137° Southeast  Level FlightAware Approximate
Tue 04:30:00 AM -11.0163 -59.1625 137° Southeast  Level FlightAware Approximate
Tue 04:31:00 AM -11.1160 -59.0690 137° Southeast  Level FlightAware Approximate
Tue 04:32:00 AM -11.2156 -58.9755 137° Southeast  Level FlightAware Approximate
Tue 04:33:00 AM -11.3152 -58.8819 137° Southeast  Level FlightAware Approximate
Tue 04:34:00 AM -11.4148 -58.7882 137° Southeast  Level FlightAware Approximate
Tue 04:35:00 AM -11.5143 -58.6945 137° Southeast  Level FlightAware Approximate
Tue 04:36:00 AM -11.6138 -58.6007 137° Southeast  Level FlightAware Approximate
Tue 04:37:00 AM -11.7133 -58.5068 137° Southeast  Level FlightAware Approximate
Tue 04:38:00 AM -11.8127 -58.4129 137° Southeast  Level FlightAware Approximate
Tue 04:39:00 AM -11.9121 -58.3189 137° Southeast  Level FlightAware Approximate
Tue 04:40:00 AM -12.0115 -58.2248 137° Southeast  Level FlightAware Approximate
Tue 04:41:00 AM -12.1109 -58.1307 137° Southeast  Level FlightAware Approximate
Tue 04:42:00 AM -12.2102 -58.0365 137° Southeast  Level FlightAware Approximate
Tue 04:43:00 AM -12.3095 -57.9422 137° Southeast  Level FlightAware Approximate
Tue 04:44:00 AM -12.4087 -57.8479 137° Southeast  Level FlightAware Approximate
Tue 04:45:00 AM -12.5079 -57.7534 137° Southeast  Level FlightAware Approximate
Tue 04:46:00 AM -12.6071 -57.6590 137° Southeast  Level FlightAware Approximate
Tue 04:47:00 AM -12.7063 -57.5644 137° Southeast  Level FlightAware Approximate
Tue 04:48:00 AM -12.8054 -57.4697 137° Southeast  Level FlightAware Approximate
Tue 04:49:00 AM -12.9045 -57.3750 137° Southeast  Level FlightAware Approximate
Tue 04:50:00 AM -13.0035 -57.2802 137° Southeast  Level FlightAware Approximate
Tue 04:51:00 AM -13.1026 -57.1854 137° Southeast  Level FlightAware Approximate
Tue 04:52:00 AM -13.2015 -57.0904 137° Southeast  Level FlightAware Approximate
Tue 04:53:00 AM -13.3005 -56.9954 137° Southeast  Level FlightAware Approximate
Tue 04:54:00 AM -13.3994 -56.9003 137° Southeast  Level FlightAware Approximate
Tue 04:55:00 AM -13.4983 -56.8051 137° Southeast  Level FlightAware Approximate
Tue 04:56:00 AM -13.5971 -56.7099 137° Southeast  Level FlightAware Approximate
Tue 04:57:00 AM -13.6959 -56.6145 137° Southeast  Level FlightAware Approximate
Tue 04:58:00 AM -13.7947 -56.5191 137° Southeast  Level FlightAware Approximate
Tue 04:59:00 AM -13.8934 -56.4236 137° Southeast  Level FlightAware Approximate
Tue 05:00:00 AM -13.9921 -56.3281 137° Southeast  Level FlightAware Approximate
Tue 05:01:00 AM -14.0908 -56.2324 137° Southeast  Level FlightAware Approximate
Tue 05:02:00 AM -14.1894 -56.1367 137° Southeast  Level FlightAware Approximate
Tue 05:03:00 AM -14.2880 -56.0408 137° Southeast  Level FlightAware Approximate
Tue 05:04:00 AM -14.3865 -55.9449 137° Southeast  Level FlightAware Approximate
Tue 05:05:00 AM -14.4851 -55.8489 137° Southeast  Level FlightAware Approximate
Tue 05:06:00 AM -14.5835 -55.7529 137° Southeast  Level FlightAware Approximate
Tue 05:07:00 AM -14.6820 -55.6567 137° Southeast  Level FlightAware Approximate
Tue 05:08:00 AM -14.7803 -55.5605 137° Southeast  Level FlightAware Approximate
Tue 05:09:00 AM -14.8787 -55.4641 137° Southeast  Level FlightAware Approximate
Tue 05:10:00 AM -14.9770 -55.3677 137° Southeast  Level FlightAware Approximate
Tue 05:11:00 AM -15.0753 -55.2712 137° Southeast  Level FlightAware Approximate
Tue 05:12:00 AM -15.1735 -55.1746 136° Southeast  Level FlightAware Approximate
Tue 05:13:00 AM -15.2717 -55.0779 136° Southeast  Level FlightAware Approximate
Tue 05:14:00 AM -15.3698 -54.9811 136° Southeast  Level FlightAware Approximate
Tue 05:15:00 AM -15.4679 -54.8842 136° Southeast  Level FlightAware Approximate
Tue 05:16:00 AM -15.5660 -54.7873 136° Southeast  Level FlightAware Approximate
Tue 05:17:00 AM -15.6640 -54.6902 136° Southeast  Level FlightAware Approximate
Tue 05:18:00 AM -15.7620 -54.5930 136° Southeast  Level FlightAware Approximate
Tue 05:19:00 AM -15.8599 -54.4958 136° Southeast  Level FlightAware Approximate
Tue 05:20:00 AM -15.9578 -54.3984 136° Southeast  Level FlightAware Approximate
Tue 05:21:00 AM -16.0557 -54.3010 136° Southeast  Level FlightAware Approximate
Tue 05:22:00 AM -16.1535 -54.2035 136° Southeast  Level FlightAware Approximate
Tue 05:23:00 AM -16.2512 -54.1059 136° Southeast  Level FlightAware Approximate
Tue 05:24:00 AM -16.3489 -54.0081 136° Southeast  Level FlightAware Approximate
Tue 05:25:00 AM -16.4466 -53.9103 136° Southeast  Level FlightAware Approximate
Tue 05:26:00 AM -16.5442 -53.8124 136° Southeast  Level FlightAware Approximate
Tue 05:27:00 AM -16.6418 -53.7144 136° Southeast  Level FlightAware Approximate
Tue 05:28:00 AM -16.7393 -53.6162 136° Southeast  Level FlightAware Approximate
Tue 05:29:00 AM -16.8368 -53.5180 136° Southeast  Level FlightAware Approximate
Tue 05:30:00 AM -16.9342 -53.4197 136° Southeast  Level FlightAware Approximate
Tue 05:31:00 AM -17.0316 -53.3213 136° Southeast  Level FlightAware Approximate
Tue 05:32:00 AM -17.1290 -53.2228 136° Southeast  Level FlightAware Approximate
Tue 05:33:00 AM -17.2263 -53.1241 136° Southeast  Level FlightAware Approximate
Tue 05:34:00 AM -17.3235 -53.0254 136° Southeast  Level FlightAware Approximate
Tue 05:35:00 AM -17.4207 -52.9266 136° Southeast  Level FlightAware Approximate
Tue 05:36:00 AM -17.5179 -52.8276 136° Southeast  Level FlightAware Approximate
Tue 05:37:00 AM -17.6150 -52.7286 136° Southeast  Level FlightAware Approximate
Tue 05:38:00 AM -17.7120 -52.6294 136° Southeast  Level FlightAware Approximate
Tue 05:39:00 AM -17.8090 -52.5301 136° Southeast  Level FlightAware Approximate
Tue 05:40:00 AM -17.9060 -52.4308 136° Southeast  Level FlightAware Approximate
Tue 05:41:00 AM -18.0029 -52.3313 136° Southeast  Level FlightAware Approximate
Tue 05:41:49 AM -19.0250 -50.6550 136° Southeast 553 636 37,000  Level FlightAware ADS-B
Tue 05:42:00 AM -18.0997 -52.2317 136° Southeast  Level FlightAware Approximate
Tue 05:42:23 AM -19.0840 -50.5910 134° Southeast 550 633 37,000  Level FlightAware ADS-B
Tue 05:42:57 AM -19.1450 -50.5240 134° Southeast 549 632 37,000  Level FlightAware ADS-B
Tue 05:43:31 AM -19.2050 -50.4590 134° Southeast 550 633 37,000  Level FlightAware ADS-B
Tue 05:44:09 AM -19.2730 -50.3850 134° Southeast 553 636 37,000  Level FlightAware ADS-B
Tue 05:44:41 AM -19.3300 -50.3230 134° Southeast 555 639 37,000  Level FlightAware ADS-B
Tue 05:45:18 AM -19.3950 -50.2520 134° Southeast 555 639 37,000  Level FlightAware ADS-B
Tue 05:45:53 AM -19.4580 -50.1820 134° Southeast 556 640 37,000  Level FlightAware ADS-B
Tue 05:46:29 AM -19.5230 -50.1110 134° Southeast 556 640 37,000  Level FlightAware ADS-B
Tue 05:47:02 AM -19.5810 -50.0480 134° Southeast 557 641 37,000  Level FlightAware ADS-B
Tue 05:47:37 AM -19.6440 -49.9780 134° Southeast 557 641 37,000  Level FlightAware ADS-B
Tue 05:48:11 AM -19.7050 -49.9110 134° Southeast 555 639 37,000  Level FlightAware ADS-B
Tue 05:48:49 AM -19.7730 -49.8360 134° Southeast 554 638 37,000  Level FlightAware ADS-B
Tue 05:49:21 AM -19.8310 -49.7730 134° Southeast 554 638 37,000  Level FlightAware ADS-B
Tue 05:49:57 AM -19.8930 -49.7040 134° Southeast 554 638 37,000  Level FlightAware ADS-B
Tue 05:50:29 AM -19.9510 -49.6400 134° Southeast 555 639 37,000  Level FlightAware ADS-B
Tue 05:51:08 AM -20.0190 -49.5650 134° Southeast 555 639 37,000  Level FlightAware ADS-B
Tue 05:51:44 AM -20.0840 -49.4930 134° Southeast 556 640 37,000  Level FlightAware ADS-B
Tue 05:52:19 AM -20.1480 -49.4220 134° Southeast 555 639 37,000  Level FlightAware ADS-B
Tue 05:52:51 AM -20.2050 -49.3580 134° Southeast 555 639 37,000  Level FlightAware ADS-B
Tue 05:53:27 AM -20.2680 -49.2880 134° Southeast 555 639 37,000  Level FlightAware ADS-B
Tue 05:54:03 AM -20.3320 -49.2170 134° Southeast 555 639 37,000  Level FlightAware ADS-B
Tue 05:54:33 AM -20.3860 -49.1570 134° Southeast 555 639 37,000  Level FlightAware ADS-B
Tue 05:55:13 AM -20.4570 -49.0780 134° Southeast 555 639 37,000  Level FlightAware ADS-B
Tue 05:55:49 AM -20.5190 -49.0080 133° Southeast 555 639 37,000  Level FlightAware ADS-B
Tue 05:56:22 AM -20.5780 -48.9420 134° Southeast 555 639 37,000  Level FlightAware ADS-B
Tue 05:56:58 AM -20.6420 -48.8710 134° Southeast 554 638 37,000  Level FlightAware ADS-B
Tue 05:57:35 AM -20.7070 -48.7980 134° Southeast 553 636 37,000  Level FlightAware ADS-B
Tue 05:58:07 AM -20.7640 -48.7340 134° Southeast 553 636 37,000  Level FlightAware ADS-B
Tue 05:58:43 AM -20.8260 -48.6650 134° Southeast 555 639 37,000  Level FlightAware ADS-B
Tue 05:59:19 AM -20.8890 -48.5930 133° Southeast 557 641 37,000  Level FlightAware ADS-B
Tue 05:59:55 AM -20.9520 -48.5220 134° Southeast 556 640 37,000  Level FlightAware ADS-B
Tue 06:00:27 AM -21.0090 -48.4570 133° Southeast 553 636 37,000  Level FlightAware ADS-B
Tue 06:00:59 AM -21.0650 -48.3940 134° Southeast 553 636 37,000  Level FlightAware ADS-B
Tue 06:01:35 AM -21.1310 -48.3190 133° Southeast 552 635 37,000  Level FlightAware ADS-B
Tue 06:02:15 AM -21.2030 -48.2380 134° Southeast 553 636 37,000  Level FlightAware ADS-B
Tue 06:02:47 AM -21.2580 -48.1760 134° Southeast 555 639 37,000  Level FlightAware ADS-B
Tue 06:03:23 AM -21.3220 -48.1040 134° Southeast 555 639 37,000  Level FlightAware ADS-B
Tue 06:03:59 AM -21.3860 -48.0300 133° Southeast 553 636 37,000  Level FlightAware ADS-B
Tue 06:04:32 AM -21.4430 -47.9660 134° Southeast 553 636 37,000  Level FlightAware ADS-B
Tue 06:05:07 AM -21.5040 -47.8960 133° Southeast 553 636 37,000  Level FlightAware ADS-B
Tue 06:05:42 AM -21.5660 -47.8250 133° Southeast 553 636 37,000 -343 Level FlightAware ADS-B
Tue 06:06:17 AM -21.6270 -47.7550 133° Southeast 546 628 36,600 -1,750 Descending FlightAware ADS-B
Tue 06:06:54 AM -21.6910 -47.6820 133° Southeast 548 631 34,900 -2,630 Descending FlightAware ADS-B
Tue 06:07:30 AM -21.7530 -47.6110 133° Southeast 546 628 33,400 -2,239 Descending FlightAware ADS-B
Tue 06:08:01 AM -21.8060 -47.5500 133° Southeast 536 617 32,400 -1,881 Descending FlightAware ADS-B
Tue 06:08:37 AM -21.8670 -47.4800 133° Southeast 524 603 31,300 -1,833 Descending FlightAware ADS-B
Tue 06:09:13 AM -21.9250 -47.4130 133° Southeast 513 590 30,200 -1,808 Descending FlightAware ADS-B
Tue 06:09:50 AM -21.9880 -47.3510 138° Southeast 494 568 29,100 -1,853 Descending FlightAware ADS-B
Tue 06:10:21 AM -22.0500 -47.3180 154° Southeast 475 547 28,100 -1,881 Descending FlightAware ADS-B
Tue 06:10:57 AM -22.1230 -47.2870 159° South 464 534 27,000 -1,853 Descending FlightAware ADS-B
Tue 06:11:29 AM -22.1880 -47.2610 160° South 456 525 26,000 -1,781 Descending FlightAware ADS-B
Tue 06:12:01 AM -22.2510 -47.2350 159° South 449 517 25,100 -1,765 Descending FlightAware ADS-B
Tue 06:12:37 AM -22.3220 -47.2050 159° South 442 509 24,000 -1,750 Descending FlightAware ADS-B
Tue 06:13:13 AM -22.3850 -47.1790 159° South 435 501 23,000 -1,667 Descending FlightAware ADS-B
Tue 06:13:49 AM -22.4560 -47.1490 159° South 429 494 22,000 -1,833 Descending FlightAware ADS-B
Tue 06:14:25 AM -22.5220 -47.1210 159° South 425 489 20,800 -1,941 Descending FlightAware ADS-B
Tue 06:14:57 AM -22.5810 -47.0960 159° South 419 482 19,800 -1,727 Descending FlightAware ADS-B
Tue 06:15:31 AM -22.6410 -47.0710 159° South 414 476 18,900 -1,667 Descending FlightAware ADS-B
Tue 06:16:09 AM -22.7090 -47.0420 159° South 406 467 17,800 -1,833 Descending FlightAware ADS-B
Tue 06:16:43 AM -22.7690 -47.0170 159° South 404 465 16,700 -1,800 Descending FlightAware ADS-B
Tue 06:17:19 AM -22.8310 -46.9910 159° South 399 459 15,700 -1,500 Descending FlightAware ADS-B
Tue 06:17:55 AM -22.8930 -46.9650 159° South 386 444 14,900 -1,083 Descending FlightAware ADS-B
Tue 06:18:31 AM -22.9500 -46.9410 159° South 365 420 14,400 -794 Descending FlightAware ADS-B
Tue 06:19:03 AM -22.9990 -46.9210 159° South 330 380 14,000 -1,235 Descending FlightAware ADS-B
Tue 06:19:39 AM -23.0480 -46.9000 158° South 303 349 13,000 -1,971 Descending FlightAware ADS-B
Tue 06:20:13 AM -23.0920 -46.8810 158° South 298 343 11,700 -2,250 Descending FlightAware ADS-B
Tue 06:20:51 AM -23.1400 -46.8610 159° South 294 338 10,300 -2,069 Descending FlightAware ADS-B
Tue 06:21:11 AM -23.1660 -46.8500 159° South 295 339 9,700 -1,500 Descending FlightAware ADS-B
Tue 06:21:31 AM -23.1910 -46.8400 160° South 292 336 9,300 -1,500 Descending FlightAware ADS-B
Tue 06:21:51 AM -23.2170 -46.8290 159° South 290 334 8,700 -1,535 Descending FlightAware ADS-B
Tue 06:22:14 AM -23.2450 -46.8170 159° South 290 334 8,200 -1,395 Descending FlightAware ADS-B
Tue 06:22:34 AM -23.2700 -46.8060 158° South 291 335 7,700 -1,313 Descending FlightAware ADS-B
Tue 06:22:46 AM -23.2860 -46.8000 161° South 290 334 7,500 -1,125 Descending FlightAware ADS-B
Tue 06:23:06 AM -23.3110 -46.7890 158° South 290 334 7,100 -652 Descending FlightAware ADS-B
Tue 06:23:32 AM -23.3430 -46.7750 158° South 286 329 7,000 -522 Descending FlightAware ADS-B
Tue 06:23:52 AM -23.3670 -46.7640 157° South 284 327 6,700 -968 Descending FlightAware ADS-B
Tue 06:24:03 AM -23.3780 -46.7570 150° Southeast 284 327 6,500 -1,000 Descending FlightAware ADS-B
Tue 06:24:28 AM -23.4050 -46.7320 140° Southeast 281 323 6,100 -698 Descending FlightAware ADS-B
Tue 06:24:46 AM -23.4220 -46.7170 141° Southeast 270 311 6,000 -450 Descending FlightAware ADS-B
Tue 06:25:08 AM -23.4420 -46.6970 137° Southeast 252 290 5,800 -800 Descending FlightAware ADS-B
Tue 06:25:16 AM -23.4470 -46.6890 124° Southeast 244 281 5,600 -1,500 Descending FlightAware ADS-B
Tue 06:25:28 AM -23.4550 -46.6770 126° Southeast 232 267 5,300 -1,333 Descending FlightAware ADS-B
Tue 06:25:52 AM -23.4650 -46.6520 114° Southeast 214 246 4,800 -955 Descending FlightAware ADS-B
Tue 06:26:12 AM -23.4730 -46.6330 115° Southeast 199 229 4,600 -429 Descending FlightAware ADS-B
Tue 06:26:20 AM -23.4740 -46.6250 98° East 193 222 4,600 -188 Level FlightAware ADS-B
Tue 06:26:44 AM -23.4700 -46.6030 79° East 184 212 4,500 -450 Descending FlightAware ADS-B
Tue 06:27:00 AM -23.4670 -46.5900 76° East 170 196 4,300 -857 Descending FlightAware ADS-B
Tue 06:27:19 AM -23.4630 -46.5750 74° East 170 196 4,000 -1,050 Descending FlightAware ADS-B
Tue 06:27:40 AM -23.4580 -46.5560 74° East 168 193 3,600 -933 Descending FlightAware ADS-B
Tue 06:28:04 AM -23.4520 -46.5380 70° East 165 190 3,300 -783 Descending FlightAware ADS-B
Tue 06:28:26 AM -23.4480 -46.5210 76° East 163 188 3,000 -857 Descending FlightAware ADS-B
Tue 06:28:46 AM -23.4440 -46.5040 76° East 161 185 2,700 -764 Descending FlightAware ADS-B
Tue 06:29:21 AM -23.4370 -46.4790 73° East 148 170 2,300 -686 Descending FlightAware ADS-B
Tue 06:29:41 AM -23.4340 -46.4690 72° East 84 97 -6,900 Descending FlightAware ADS-B
Tue 06:30:07 AM -23.4310 -46.4600 70° East 84 97  Level FlightAware ADS-B

Login

Don't have an account? Register now (free) for customized features, flight alerts, and more!